Terminal Aerodrome Forecast
Issued by NWS

Home | Current Version | Previous Version | Text Only | Print | Product List | Glossary On
Versions: 1 2 3 4 5 6 7 8 9 10 11 12 13 14 15 16 17 18 19 20
000
FTUS41 KBOX 172327
TAFACK
TAF
KACK 172327Z 1800/1824 06017KT P6SM SCT250
     FM180300 07017KT P6SM OVC090
     FM180500 07018KT P6SM -DZ OVC015
     FM180900 06012KT P6SM -DZ OVC010
     FM181300 06013KT P6SM -DZ OVC015
     FM181600 06012KT P6SM OVC020
     FM182200 08008KT P6SM OVC020=

USA.gov is the U.S. government's official web portal to all federal, state and local government web resources and services.